createdAt,value
2023-05-25T00:10:01.982Z,20.20
2023-05-25T00:20:07.671Z,20.05
2023-05-25T00:30:11.681Z,19.93
2023-05-25T00:40:16.818Z,19.80
2023-05-25T00:50:35.270Z,19.75
2023-05-25T01:00:43.270Z,19.67
2023-05-25T01:10:50.313Z,19.50
2023-05-25T01:21:13.566Z,18.39
2023-05-25T01:31:23.716Z,18.11
2023-05-25T01:41:29.364Z,18.32
2023-05-25T01:51:50.023Z,18.56
2023-05-25T02:01:54.898Z,18.52
2023-05-25T02:11:58.725Z,18.51
2023-05-25T02:22:03.719Z,18.75
2023-05-25T02:32:07.633Z,19.16
2023-05-25T02:42:11.527Z,19.33
2023-05-25T02:52:15.632Z,19.25
2023-05-25T03:13:19.277Z,18.69
2023-05-25T03:23:23.969Z,18.46
2023-05-25T03:33:28.709Z,18.33
2023-05-25T03:43:32.573Z,18.32
2023-05-25T03:53:36.980Z,18.34
2023-05-25T04:03:41.301Z,18.26
2023-05-25T04:13:49.262Z,18.12
2023-05-25T04:23:52.878Z,18.07
2023-05-25T04:33:59.320Z,18.06
2023-05-25T04:44:11.385Z,18.28
2023-05-25T04:54:20.764Z,18.57
2023-05-25T05:04:25.933Z,19.17
2023-05-25T05:14:31.529Z,19.98
2023-05-25T05:24:36.364Z,22.96
2023-05-25T05:34:40.584Z,27.12
2023-05-25T05:44:57.736Z,25.71
2023-05-25T05:55:03.538Z,25.34
2023-05-25T06:05:08.098Z,25.16
2023-05-25T06:15:14.456Z,25.27
2023-05-25T06:25:20.565Z,25.44
2023-05-25T06:35:24.388Z,25.59
2023-05-25T06:45:30.716Z,25.81
2023-05-25T06:56:35.023Z,25.49
2023-05-25T07:06:40.846Z,25.98
2023-05-25T07:16:45.352Z,25.67
2023-05-25T07:26:54.457Z,24.60
2023-05-25T07:36:58.100Z,24.65
2023-05-25T07:47:01.955Z,24.65
2023-05-25T07:57:07.133Z,25.08
2023-05-25T08:07:11.736Z,25.10
2023-05-25T08:17:20.572Z,24.98
2023-05-25T08:27:24.188Z,25.50
2023-05-25T08:37:27.898Z,26.24
2023-05-25T08:47:34.025Z,26.51
2023-05-25T08:58:00.720Z,26.09
2023-05-25T09:08:11.618Z,25.57
2023-05-25T09:18:15.223Z,25.90
2023-05-25T09:28:27.046Z,26.06
2023-05-25T09:38:31.802Z,26.05
2023-05-25T09:48:36.561Z,25.55
2023-05-25T09:58:41.475Z,25.23
2023-05-25T10:08:46.021Z,25.29
2023-05-25T10:18:58.279Z,25.51
2023-05-25T10:29:04.802Z,26.00
2023-05-25T10:39:13.478Z,26.23
2023-05-25T10:49:37.676Z,26.60
2023-05-25T10:59:42.587Z,26.06
2023-05-25T11:09:58.503Z,25.90
2023-05-25T11:20:06.419Z,25.45
2023-05-25T11:30:12.802Z,25.38
2023-05-25T11:40:17.146Z,26.03
2023-05-25T11:50:22.858Z,26.19
2023-05-25T12:00:28.636Z,25.54
2023-05-25T12:10:32.389Z,25.50
2023-05-25T12:20:41.559Z,24.88
2023-05-25T12:30:47.861Z,24.48
2023-05-25T12:41:08.195Z,24.98
2023-05-25T12:51:12.422Z,24.91
2023-05-25T13:01:18.214Z,24.83
2023-05-25T13:11:22.136Z,24.99
2023-05-25T13:21:28.676Z,24.74
2023-05-25T13:31:32.616Z,24.57
2023-05-25T13:41:36.384Z,24.48
2023-05-25T13:51:41.842Z,24.07
2023-05-25T14:01:45.654Z,24.22
2023-05-25T14:11:49.401Z,24.36
2023-05-25T14:22:11.127Z,24.20
2023-05-25T14:32:19.530Z,24.14
2023-05-25T14:42:28.857Z,24.54
2023-05-25T14:52:32.662Z,24.26
2023-05-25T15:02:38.606Z,24.77
2023-05-25T15:12:44.767Z,24.60
2023-05-25T15:22:48.526Z,24.01
2023-05-25T15:32:52.213Z,23.56
2023-05-25T15:42:56.395Z,23.44
2023-05-25T15:53:02.214Z,22.87
2023-05-25T16:03:07.107Z,22.36
2023-05-25T16:13:10.852Z,22.04
2023-05-25T16:23:16.562Z,22.27
2023-05-25T16:33:20.187Z,21.87
2023-05-25T16:43:26.642Z,21.66
2023-05-25T16:53:30.386Z,21.00
2023-05-25T17:03:36.053Z,20.47
2023-05-25T17:13:40.072Z,20.34
2023-05-25T17:23:44.129Z,20.18
2023-05-25T17:33:48.101Z,20.48
2023-05-25T17:43:54.161Z,20.74
2023-05-25T17:53:59.192Z,19.91
2023-05-25T18:04:05.198Z,19.10
2023-05-25T18:14:08.894Z,18.64
2023-05-25T18:24:13.526Z,18.26
2023-05-25T18:34:17.579Z,17.89
2023-05-25T18:44:21.382Z,17.63
2023-05-25T18:54:28.327Z,17.47
2023-05-25T19:04:35.651Z,17.27
2023-05-25T19:14:39.238Z,17.26
2023-05-25T19:24:46.973Z,17.30
2023-05-25T19:34:53.213Z,17.05
2023-05-25T19:45:00.160Z,17.12
2023-05-25T19:55:04.271Z,17.17
2023-05-25T20:05:10.941Z,17.25
2023-05-25T20:15:14.689Z,17.22
2023-05-25T20:25:18.677Z,17.18
2023-05-25T20:35:24.378Z,17.27
2023-05-25T20:45:29.556Z,17.09
2023-05-25T20:55:33.369Z,16.85
2023-05-25T21:05:38.316Z,16.69
2023-05-25T21:15:44.454Z,16.17
2023-05-25T21:25:48.887Z,15.83
2023-05-25T21:35:54.444Z,15.59
2023-05-25T21:45:58.277Z,15.38
2023-05-25T21:56:02.109Z,15.41
2023-05-25T22:06:05.876Z,15.21
2023-05-25T22:16:13.165Z,15.13
2023-05-25T22:26:17.009Z,15.27
2023-05-25T22:36:20.668Z,15.22
2023-05-25T22:46:26.305Z,15.19
2023-05-25T22:56:30.582Z,15.06
2023-05-25T23:06:34.273Z,14.97
2023-05-25T23:16:41.786Z,14.79
2023-05-25T23:26:45.497Z,14.64
2023-05-25T23:36:49.066Z,14.44
2023-05-25T23:46:55.698Z,14.31
2023-05-25T23:56:59.511Z,14.17
